Time,TemperatureF,DewpointF,PressureIn,WindDirection,WindDirectionDegrees,WindSpeedMPH,WindSpeedGustMPH,Humidity,HourlyPrecipIn,Conditions,Clouds,dailyrainin,SoftwareType,DateUTC
2013-08-15 00:07:00,61.5,61.2,29.88,NE,45,0.0,-999.0,99,-99.99,,,0.00,Acu-Link.com,2013-08-15 04:07:00,
2013-08-15 00:22:00,61.7,61.4,29.88,NE,45,0.0,-999.0,99,-99.99,,,0.00,Acu-Link.com,2013-08-15 04:22:00,
2013-08-15 00:38:00,61.9,61.3,29.88,East,90,0.0,-999.0,98,-99.99,,,0.00,Acu-Link.com,2013-08-15 04:38:00,
2013-08-15 00:53:00,61.7,61.4,29.88,East,90,0.0,-999.0,99,-99.99,,,0.00,Acu-Link.com,2013-08-15 04:53:00,
2013-08-15 01:08:00,62.2,61.9,29.88,NE,45,0.0,-999.0,99,-99.99,,,0.00,Acu-Link.com,2013-08-15 05:08:00,
2013-08-15 01:23:00,62.6,62.3,29.87,East,90,0.0,-999.0,99,-99.99,,,0.00,Acu-Link.com,2013-08-15 05:23:00,
2013-08-15 01:38:00,62.8,62.5,29.88,ESE,112,0.0,-999.0,99,-99.99,,,0.00,Acu-Link.com,2013-08-15 05:38:00,
2013-08-15 01:53:00,63.1,62.8,29.88,West,270,0.0,-999.0,99,-99.99,,,0.00,Acu-Link.com,2013-08-15 05:53:00,
2013-08-15 02:08:00,63.3,61.5,29.87,WNW,292,0.0,-999.0,94,-99.99,,,0.00,Acu-Link.com,2013-08-15 06:08:00,
2013-08-15 02:24:00,63.5,61.4,29.86,North,0,0.0,-999.0,93,-99.99,,,0.00,Acu-Link.com,2013-08-15 06:24:00,
2013-08-15 02:39:00,63.3,61.2,29.86,ENE,67,0.0,-999.0,93,-99.99,,,0.00,Acu-Link.com,2013-08-15 06:39:00,
2013-08-15 02:54:00,63.1,61.3,29.86,ENE,67,0.0,-999.0,94,-99.99,,,0.00,Acu-Link.com,2013-08-15 06:54:00,
2013-08-15 03:09:00,63.1,61.6,29.87,NNE,22,0.0,-999.0,95,-99.99,,,0.00,Acu-Link.com,2013-08-15 07:09:00,
2013-08-15 03:24:00,62.8,61.3,29.87,East,90,0.0,-999.0,95,-99.99,,,0.00,Acu-Link.com,2013-08-15 07:24:00,
2013-08-15 03:39:00,62.8,61.3,29.88,NNW,337,0.0,-999.0,95,-99.99,,,0.00,Acu-Link.com,2013-08-15 07:39:00,
2013-08-15 03:55:00,63.0,61.5,29.87,NNE,22,0.0,-999.0,95,-99.99,,,0.00,Acu-Link.com,2013-08-15 07:55:00,
2013-08-15 04:11:00,63.1,61.6,29.88,East,90,0.0,-999.0,95,-99.99,,,0.00,Acu-Link.com,2013-08-15 08:11:00,
2013-08-15 04:26:00,63.1,61.6,29.87,North,0,0.0,-999.0,95,-99.99,,,0.00,Acu-Link.com,2013-08-15 08:26:00,
2013-08-15 04:41:00,63.3,61.8,29.88,ENE,67,0.0,-999.0,95,-99.99,,,0.00,Acu-Link.com,2013-08-15 08:41:00,
2013-08-15 04:56:00,63.1,61.9,29.88,South,180,0.0,-999.0,96,-99.99,,,0.00,Acu-Link.com,2013-08-15 08:56:00,
2013-08-15 05:11:00,62.4,61.2,29.87,ESE,112,0.0,-999.0,96,-99.99,,,0.00,Acu-Link.com,2013-08-15 09:11:00,
2013-08-15 05:26:00,61.9,61.6,29.87,ENE,67,0.0,-999.0,99,-99.99,,,0.00,Acu-Link.com,2013-08-15 09:26:00,
2013-08-15 05:41:00,61.7,61.4,29.87,SW,225,0.0,-999.0,99,-99.99,,,0.00,Acu-Link.com,2013-08-15 09:41:00,
2013-08-15 05:56:00,61.7,61.4,29.87,West,270,0.0,-999.0,99,-99.99,,,0.00,Acu-Link.com,2013-08-15 09:56:00,
2013-08-15 06:11:00,61.9,61.0,29.88,West,270,0.0,-999.0,97,-99.99,,,0.00,Acu-Link.com,2013-08-15 10:11:00,
2013-08-15 06:27:00,61.9,61.0,29.88,ENE,67,0.0,-999.0,97,-99.99,,,0.00,Acu-Link.com,2013-08-15 10:27:00,
2013-08-15 06:42:00,61.9,60.7,29.89,NNW,337,0.0,-999.0,96,-99.99,,,0.00,Acu-Link.com,2013-08-15 10:42:00,
2013-08-15 06:57:00,61.9,60.5,29.89,NNW,337,0.0,-999.0,95,-99.99,,,0.00,Acu-Link.com,2013-08-15 10:57:00,
2013-08-15 07:12:00,61.5,60.1,29.90,NE,45,0.0,-999.0,95,-99.99,,,0.00,Acu-Link.com,2013-08-15 11:12:00,
2013-08-15 07:27:00,61.2,60.0,29.89,NW,315,0.0,-999.0,96,-99.99,,,0.00,Acu-Link.com,2013-08-15 11:27:00,
2013-08-15 07:42:00,61.3,60.1,29.90,West,270,0.0,-999.0,96,-99.99,,,0.00,Acu-Link.com,2013-08-15 11:42:00,
2013-08-15 07:57:00,62.2,60.4,29.91,WNW,292,0.0,-999.0,94,-99.99,,,0.00,Acu-Link.com,2013-08-15 11:57:00,
2013-08-15 08:12:00,63.0,60.9,29.90,NNE,22,0.0,-999.0,93,-99.99,,,0.00,Acu-Link.com,2013-08-15 12:12:00,
2013-08-15 08:27:00,63.9,61.8,29.91,WNW,292,0.0,-999.0,93,-99.99,,,0.00,Acu-Link.com,2013-08-15 12:27:00,
2013-08-15 08:43:00,64.6,61.6,29.91,WNW,292,1.7,-999.0,90,-99.99,,,0.00,Acu-Link.com,2013-08-15 12:43:00,
2013-08-15 08:58:00,65.1,61.8,29.91,WNW,292,0.0,-999.0,89,-99.99,,,0.00,Acu-Link.com,2013-08-15 12:58:00,
2013-08-15 09:13:00,68.7,62.6,29.91,NNW,337,0.0,-999.0,81,-99.99,,,0.00,Acu-Link.com,2013-08-15 13:13:00,
2013-08-15 09:28:00,72.0,63.2,29.92,WNW,292,0.0,-999.0,74,-99.99,,,0.00,Acu-Link.com,2013-08-15 13:28:00,
2013-08-15 09:43:00,75.7,64.4,29.91,NNW,337,0.0,-999.0,68,-99.99,,,0.00,Acu-Link.com,2013-08-15 13:43:00,
2013-08-15 09:58:00,77.7,64.5,29.91,West,270,2.7,-999.0,64,-99.99,,,0.00,Acu-Link.com,2013-08-15 13:58:00,
2013-08-15 10:28:00,79.5,65.3,29.91,NW,315,2.2,-999.0,62,-99.99,,,0.00,Acu-Link.com,2013-08-15 14:28:00,
2013-08-15 10:43:00,73.0,63.8,29.91,NW,315,2.7,-999.0,73,-99.99,,,0.00,Acu-Link.com,2013-08-15 14:43:00,
2013-08-15 11:29:00,76.3,66.2,29.91,NW,315,2.2,-999.0,71,-99.99,,,0.00,Acu-Link.com,2013-08-15 15:29:00,
2013-08-15 11:44:00,79.0,64.4,29.91,SSW,202,2.2,-999.0,61,-99.99,,,0.00,Acu-Link.com,2013-08-15 15:44:00,
2013-08-15 11:59:00,79.2,66.8,29.91,SSE,157,1.1,-999.0,66,-99.99,,,0.00,Acu-Link.com,2013-08-15 15:59:00,
2013-08-15 12:29:00,80.6,64.9,29.90,South,180,1.7,-999.0,59,-99.99,,,0.00,Acu-Link.com,2013-08-15 16:29:00,
2013-08-15 12:45:00,81.9,66.6,29.90,ESE,112,2.7,-999.0,60,-99.99,,,0.00,Acu-Link.com,2013-08-15 16:45:00,
2013-08-15 13:00:00,82.0,64.7,29.90,SSE,157,0.0,-999.0,56,-99.99,,,0.00,Acu-Link.com,2013-08-15 17:00:00,
2013-08-15 13:15:00,83.3,68.4,29.90,SSW,202,2.7,-999.0,61,-99.99,,,0.00,Acu-Link.com,2013-08-15 17:15:00,
2013-08-15 13:30:00,79.7,65.5,29.89,ESE,112,0.0,-999.0,62,-99.99,,,0.00,Acu-Link.com,2013-08-15 17:30:00,
2013-08-15 14:00:00,81.1,66.8,29.89,South,180,3.2,-999.0,62,-99.99,,,0.00,Acu-Link.com,2013-08-15 18:00:00,
2013-08-15 14:15:00,81.5,68.1,29.88,SSW,202,2.2,-999.0,64,-99.99,,,0.00,Acu-Link.com,2013-08-15 18:15:00,
2013-08-15 14:30:00,81.0,67.7,29.88,ENE,67,1.1,-999.0,64,-99.99,,,0.00,Acu-Link.com,2013-08-15 18:30:00,
2013-08-15 15:16:00,78.1,68.3,29.87,NE,45,0.0,-999.0,72,-99.99,,,0.00,Acu-Link.com,2013-08-15 19:16:00,
2013-08-15 15:31:00,82.6,70.9,29.87,East,90,0.0,-999.0,68,-99.99,,,0.00,Acu-Link.com,2013-08-15 19:31:00,
2013-08-15 15:46:00,81.9,71.1,29.87,SSE,157,0.0,-999.0,70,-99.99,,,0.00,Acu-Link.com,2013-08-15 19:46:00,
2013-08-15 16:01:00,82.2,72.7,29.86,SE,135,0.0,-999.0,73,-99.99,,,0.00,Acu-Link.com,2013-08-15 20:01:00,
2013-08-15 16:31:00,83.7,71.1,29.87,WNW,292,0.0,-999.0,66,-99.99,,,0.00,Acu-Link.com,2013-08-15 20:31:00,
2013-08-15 16:47:00,79.2,67.7,29.86,ENE,67,0.0,-999.0,68,-99.99,,,0.00,Acu-Link.com,2013-08-15 20:47:00,
2013-08-15 17:02:00,78.6,69.6,29.86,West,270,0.0,-999.0,74,-99.99,,,0.00,Acu-Link.com,2013-08-15 21:02:00,
2013-08-15 17:17:00,78.3,68.1,29.86,SSE,157,1.7,-999.0,71,-99.99,,,0.00,Acu-Link.com,2013-08-15 21:17:00,
2013-08-15 17:32:00,77.5,68.5,29.86,East,90,1.1,-999.0,74,-99.99,,,0.00,Acu-Link.com,2013-08-15 21:32:00,
2013-08-15 17:47:00,77.5,68.9,29.86,South,180,0.0,-999.0,75,-99.99,,,0.00,Acu-Link.com,2013-08-15 21:47:00,
2013-08-15 18:02:00,77.4,70.0,29.86,SSE,157,0.0,-999.0,78,-99.99,,,0.00,Acu-Link.com,2013-08-15 22:02:00,
2013-08-15 18:17:00,81.1,69.1,29.86,SW,225,0.0,-999.0,67,-99.99,,,0.00,Acu-Link.com,2013-08-15 22:17:00,
2013-08-15 18:32:00,79.7,69.0,29.86,WSW,247,3.7,-999.0,70,-99.99,,,0.00,Acu-Link.com,2013-08-15 22:32:00,
2013-08-15 18:48:00,78.8,69.0,29.86,SE,135,0.0,-999.0,72,-99.99,,,0.00,Acu-Link.com,2013-08-15 22:48:00,
2013-08-15 19:03:00,77.9,68.5,29.86,East,90,1.7,-999.0,73,-99.99,,,0.00,Acu-Link.com,2013-08-15 23:03:00,
2013-08-15 19:18:00,76.3,67.8,29.86,ESE,112,2.7,-999.0,75,-99.99,,,0.00,Acu-Link.com,2013-08-15 23:18:00,
2013-08-15 19:33:00,75.0,66.5,29.87,WNW,292,3.2,-999.0,75,-99.99,,,0.00,Acu-Link.com,2013-08-15 23:33:00,
2013-08-15 19:48:00,74.3,67.0,29.87,ESE,112,0.0,-999.0,78,-99.99,,,0.00,Acu-Link.com,2013-08-15 23:48:00,
2013-08-15 20:18:00,72.3,67.9,29.88,ESE,112,0.0,-999.0,86,-99.99,,,0.00,Acu-Link.com,2013-08-16 00:18:00,
2013-08-15 20:33:00,71.4,68.0,29.89,ESE,112,0.0,-999.0,89,-99.99,,,0.00,Acu-Link.com,2013-08-16 00:33:00,
2013-08-15 20:48:00,70.9,68.5,29.89,ESE,112,0.0,-999.0,92,-99.99,,,0.00,Acu-Link.com,2013-08-16 00:48:00,
2013-08-15 21:19:00,68.7,67.5,29.89,East,90,0.0,-999.0,96,-99.99,,,0.00,Acu-Link.com,2013-08-16 01:19:00,
2013-08-15 21:34:00,68.2,66.7,29.90,South,180,0.0,-999.0,95,-99.99,,,0.00,Acu-Link.com,2013-08-16 01:34:00,
2013-08-15 21:49:00,67.8,66.0,29.89,ESE,112,0.0,-999.0,94,-99.99,,,0.00,Acu-Link.com,2013-08-16 01:49:00,
2013-08-15 22:04:00,66.9,66.3,29.90,East,90,0.0,-999.0,98,-99.99,,,0.00,Acu-Link.com,2013-08-16 02:04:00,
2013-08-15 22:19:00,66.7,66.1,29.91,NNE,22,0.0,-999.0,98,-99.99,,,0.00,Acu-Link.com,2013-08-16 02:19:00,
2013-08-15 22:34:00,66.2,65.9,29.91,NE,45,0.0,-999.0,99,-99.99,,,0.00,Acu-Link.com,2013-08-16 02:34:00,
2013-08-15 22:50:00,65.8,65.5,29.90,East,90,0.0,-999.0,99,-99.99,,,0.00,Acu-Link.com,2013-08-16 02:50:00,
2013-08-15 23:05:00,65.3,65.0,29.91,East,90,0.0,-999.0,99,-99.99,,,0.00,Acu-Link.com,2013-08-16 03:05:00,
2013-08-15 23:20:00,64.9,64.6,29.91,SSE,157,0.0,-999.0,99,-99.99,,,0.00,Acu-Link.com,2013-08-16 03:20:00,
2013-08-15 23:35:00,64.4,64.1,29.91,ENE,67,0.0,-999.0,99,-99.99,,,0.00,Acu-Link.com,2013-08-16 03:35:00,
2013-08-15 23:50:00,63.9,63.6,29.91,South,180,0.0,-999.0,99,-99.99,,,0.00,Acu-Link.com,2013-08-16 03:50:00,